Aérodrome :
LOGIN :

S'inscrire | Disclaimer

   EN    FR    IT 

 










Légende :    VFR   VFR Marginal   IFR   IFR Intensif   IFR Très Intensif
Visi : 
Plafond : 
>= 8 km
>= 3000ft
5 à 8 km
1000 à 3000 ft
1500m à 5 km
500 à 1000 ft
800 à 1500m
200 à 500 ft
< 800m
< 200 ft
Symboles :   Orages  Brouillard  Fortes neiges  Fortes précipitations  Vent > 20 kt
SIGMETs :   Divers  Orages  Givrage  Turbulence  Onde Orograph.  Cendres Volcan.







- Altitude de l'aérodrome : 1273 ft
- Code IATA : LJU


LJLJ - Ljubljana

DERNIER METAR :
  • 131830Z 24003KT 4000 BR OVC035 00/00 Q1014 NOSIG

METARs EXPIRÉS :
  • 131800Z 23003KT 200V270 4000 BR SCT003 OVC033 00/00 Q1015 NOSIG
  • 131730Z VRB01KT 5000 BR SCT003 OVC030 00/00 Q1015 NOSIG
  • 131700Z 27002KT 5000 BR SCT003 SCT035 OVC045 00/00 Q1016 NOSIG
  • 131630Z VRB01KT 5000 BR SCT003 SCT035 OVC045 00/M00 Q1015 R30/29//95 NOSIG
  • 131600Z 25003KT 5000 BR SCT003 SCT038 OVC050 00/M00 Q1016 R30/29//95 NOSIG

TAF TAF LJLJ
Valide du 13 à 18h jusqu'au 14 à 18h UTC


131700Z 1318/1418 30003KT 5000 BR SCT003 OVC035
TEMPO 1318/1403 2500 -SNRA BR BKN010 OVC020
PROB30
TEMPO 1321/1409 BKN002
PROB30
TEMPO 1412/1418 -SHRA SCT035TCU
Pas de NOTAMs connus pour ce terrain.



MET'MAP, la Météo Aéronautique d'un coup d'oeil ! - Copyright ORBIFLY Décembre 2007 - Disclaimer

ORBIFLY MET'MAP TEAM :

Programmation & Développement : Alexandra Zaïnal
Conception & Développement : Baudouin d'Aumeries
Co-Programmation & Développement : Marc-Olivier Méhu
Soutien technique & logistique : Manuel Goepfert

Contact : metmap@orbifly.com




SOURCES & CREDITS :

   NOAA